createdAt,value
2019-04-29T00:00:46.096Z,54.48
2019-04-29T00:03:14.796Z,52.73
2019-04-29T00:05:43.881Z,54.59
2019-04-29T00:08:12.567Z,54.88
2019-04-29T00:10:41.376Z,54.82
2019-04-29T00:13:10.087Z,54.46
2019-04-29T00:15:43.317Z,54.40
2019-04-29T00:18:16.368Z,54.75
2019-04-29T00:20:46.667Z,55.76
2019-04-29T00:23:15.358Z,57.90
2019-04-29T00:25:44.249Z,54.50
2019-04-29T00:28:13.462Z,54.42
2019-04-29T00:30:43.076Z,54.39
2019-04-29T00:33:11.742Z,54.69
2019-04-29T00:35:40.442Z,53.88
2019-04-29T00:38:10.738Z,54.23
2019-04-29T00:40:43.891Z,55.12
2019-04-29T00:43:30.498Z,57.13
2019-04-29T00:45:59.278Z,54.13
2019-04-29T00:48:27.930Z,55.22
2019-04-29T00:50:56.575Z,55.87
2019-04-29T00:53:25.323Z,56.02
2019-04-29T00:55:53.982Z,55.67
2019-04-29T00:58:22.635Z,55.63
2019-04-29T01:00:51.522Z,54.83
2019-04-29T01:03:20.164Z,55.36
2019-04-29T01:05:53.855Z,54.41
2019-04-29T01:08:22.643Z,53.25
2019-04-29T01:10:51.356Z,56.37
2019-04-29T01:13:20.082Z,55.23
2019-04-29T01:15:49.129Z,56.42
2019-04-29T01:18:17.779Z,55.83
2019-04-29T01:20:46.441Z,56.18
2019-04-29T01:23:15.128Z,58.95
2019-04-29T01:25:45.701Z,58.22
2019-04-29T01:28:18.769Z,56.47
2019-04-29T01:31:03.910Z,56.43
2019-04-29T01:33:32.603Z,57.99
2019-04-29T01:36:17.898Z,56.02
2019-04-29T01:38:48.808Z,56.68
2019-04-29T01:41:19.486Z,57.25
2019-04-29T01:44:02.065Z,59.19
2019-04-29T01:46:31.029Z,57.76
2019-04-29T01:48:59.682Z,56.97
2019-04-29T01:51:28.460Z,56.09
2019-04-29T01:53:57.083Z,56.86
2019-04-29T01:56:25.724Z,59.07
2019-04-29T01:58:54.466Z,57.50
2019-04-29T02:01:23.220Z,58.16
2019-04-29T02:03:51.854Z,57.79
2019-04-29T02:06:20.557Z,58.10
2019-04-29T02:08:50.483Z,57.11
2019-04-29T02:11:19.150Z,58.95
2019-04-29T02:13:47.831Z,59.11
2019-04-29T02:16:16.753Z,59.26
2019-04-29T02:18:45.444Z,57.78
2019-04-29T02:21:14.074Z,58.51
2019-04-29T02:23:44.354Z,58.39
2019-04-29T02:26:13.060Z,58.19
2019-04-29T02:28:41.699Z,58.26
2019-04-29T02:31:29.416Z,60.29
2019-04-29T02:33:58.151Z,59.59
2019-04-29T02:36:29.955Z,59.80
2019-04-29T02:39:17.026Z,59.54
2019-04-29T02:42:05.411Z,59.60
2019-04-29T02:44:34.205Z,59.88
2019-04-29T02:47:02.887Z,60.41
2019-04-29T02:49:31.618Z,64.23
2019-04-29T02:52:00.316Z,60.62
2019-04-29T02:54:30.163Z,60.55
2019-04-29T02:57:06.408Z,59.55
2019-04-29T02:59:45.883Z,59.80
2019-04-29T03:02:22.118Z,60.11
2019-04-29T03:04:52.519Z,60.87
2019-04-29T03:07:22.122Z,59.94
2019-04-29T03:09:50.895Z,59.36
2019-04-29T03:12:19.560Z,61.57
2019-04-29T03:14:48.462Z,60.25
2019-04-29T03:17:18.962Z,61.33
2019-04-29T03:20:05.953Z,59.68
2019-04-29T03:22:35.061Z,60.38
2019-04-29T03:25:03.670Z,60.88
2019-04-29T03:27:32.418Z,61.50
2019-04-29T03:30:01.096Z,61.62
2019-04-29T03:32:29.762Z,58.52
2019-04-29T03:34:58.608Z,59.37
2019-04-29T03:37:27.315Z,59.99
2019-04-29T03:39:56.003Z,60.61
2019-04-29T03:42:24.714Z,62.15
2019-04-29T03:44:53.363Z,59.49
2019-04-29T03:47:22.107Z,59.94
2019-04-29T03:49:50.808Z,59.66
2019-04-29T03:52:19.450Z,60.26
2019-04-29T03:54:48.098Z,58.23
2019-04-29T03:57:17.982Z,58.92
2019-04-29T03:59:46.657Z,60.70
2019-04-29T04:02:33.441Z,59.17
2019-04-29T04:05:03.685Z,59.92
2019-04-29T04:07:49.122Z,60.77
2019-04-29T04:10:17.829Z,58.78
2019-04-29T04:12:46.515Z,58.90
2019-04-29T04:15:15.362Z,59.02
2019-04-29T04:17:51.258Z,60.21
2019-04-29T04:20:19.981Z,58.69
2019-04-29T04:22:49.143Z,59.10
2019-04-29T04:25:21.117Z,60.31
2019-04-29T04:27:49.757Z,59.53
2019-04-29T04:30:20.031Z,60.93
2019-04-29T04:32:48.694Z,60.03
2019-04-29T04:35:17.374Z,61.09
2019-04-29T04:37:46.041Z,61.49
2019-04-29T04:40:19.623Z,60.90
2019-04-29T04:42:48.243Z,59.47
2019-04-29T04:45:17.096Z,60.44
2019-04-29T04:47:45.658Z,58.74
2019-04-29T04:50:14.809Z,59.68
2019-04-29T04:52:43.512Z,59.81
2019-04-29T04:55:12.797Z,60.34
2019-04-29T04:57:42.033Z,59.49
2019-04-29T05:00:12.883Z,59.38
2019-04-29T05:02:41.542Z,60.37
2019-04-29T05:05:10.192Z,60.96
2019-04-29T05:07:38.879Z,60.42
2019-04-29T05:10:08.338Z,60.15
2019-04-29T05:12:36.919Z,59.00
2019-04-29T05:15:06.148Z,58.70
2019-04-29T05:17:34.825Z,59.29
2019-04-29T05:20:04.330Z,58.99
2019-04-29T05:22:32.953Z,57.37
2019-04-29T05:25:01.652Z,54.95
2019-04-29T05:27:30.300Z,53.96
2019-04-29T05:29:59.004Z,53.23
2019-04-29T05:32:27.667Z,51.35
2019-04-29T05:34:57.876Z,51.35
2019-04-29T05:37:36.795Z,53.95
2019-04-29T05:40:07.336Z,52.47
2019-04-29T05:42:35.971Z,51.77
2019-04-29T05:45:15.384Z,52.93
2019-04-29T05:47:45.616Z,50.84
2019-04-29T05:50:23.096Z,52.17
2019-04-29T05:52:59.730Z,52.29
2019-04-29T05:55:28.694Z,60.17
2019-04-29T05:58:03.049Z,49.97
2019-04-29T06:00:29.458Z,49.39
2019-04-29T06:02:58.109Z,49.00
2019-04-29T06:05:26.898Z,47.72
2019-04-29T06:07:56.260Z,45.94
2019-04-29T06:10:25.907Z,45.32
2019-04-29T06:12:54.542Z,46.38
2019-04-29T06:15:23.179Z,45.23
2019-04-29T06:17:52.511Z,46.95
2019-04-29T06:20:22.912Z,46.09
2019-04-29T06:22:51.809Z,44.28
2019-04-29T06:25:20.702Z,45.45
2019-04-29T06:27:49.308Z,44.13
2019-04-29T06:30:18.045Z,44.71
2019-04-29T06:32:46.798Z,44.53
2019-04-29T06:35:15.491Z,45.20
2019-04-29T06:37:44.138Z,44.93
2019-04-29T06:40:12.902Z,45.92
2019-04-29T06:42:41.588Z,44.59
2019-04-29T06:45:10.330Z,44.78
2019-04-29T06:47:38.944Z,46.18
2019-04-29T06:50:09.603Z,46.46
2019-04-29T06:52:38.240Z,45.56
2019-04-29T06:55:12.083Z,44.74
2019-04-29T06:57:40.714Z,43.89
2019-04-29T07:00:09.605Z,45.00
2019-04-29T07:02:38.242Z,43.36
2019-04-29T07:05:08.258Z,43.36
2019-04-29T07:07:36.923Z,42.10
2019-04-29T07:10:06.773Z,42.10
2019-04-29T07:12:35.911Z,42.98
2019-04-29T07:15:12.195Z,43.66
2019-04-29T07:17:41.334Z,42.89
2019-04-29T07:20:09.791Z,42.16
2019-04-29T07:22:38.602Z,41.93
2019-04-29T07:25:07.384Z,43.31
2019-04-29T07:27:42.919Z,41.78
2019-04-29T07:30:10.777Z,41.11
2019-04-29T07:32:42.093Z,41.49
2019-04-29T07:35:11.515Z,41.77
2019-04-29T07:37:40.439Z,40.37
2019-04-29T07:40:09.586Z,40.76
2019-04-29T07:42:38.271Z,39.52
2019-04-29T07:45:23.749Z,40.03
2019-04-29T07:47:56.697Z,39.03
2019-04-29T07:50:26.818Z,39.15
2019-04-29T07:52:55.211Z,41.01
2019-04-29T07:55:26.111Z,40.84
2019-04-29T07:57:54.234Z,39.69
2019-04-29T08:00:32.056Z,40.61
2019-04-29T08:03:01.133Z,38.17
2019-04-29T08:05:30.698Z,38.98
2019-04-29T08:08:01.411Z,38.84
2019-04-29T08:10:30.164Z,38.33
2019-04-29T08:12:59.770Z,38.19
2019-04-29T08:15:31.741Z,37.90
2019-04-29T08:18:06.353Z,37.24
2019-04-29T08:20:29.433Z,37.02
2019-04-29T08:22:58.381Z,36.55
2019-04-29T08:25:30.277Z,35.31
2019-04-29T08:27:58.936Z,36.94
2019-04-29T08:30:27.616Z,34.83
2019-04-29T08:32:56.284Z,35.13
2019-04-29T08:35:24.859Z,35.30
2019-04-29T08:37:53.539Z,34.62
2019-04-29T08:40:22.242Z,34.42
2019-04-29T08:43:08.822Z,33.70
2019-04-29T08:45:41.817Z,34.02
2019-04-29T08:48:10.556Z,32.83
2019-04-29T08:50:39.190Z,34.19
2019-04-29T08:53:07.952Z,33.22
2019-04-29T08:55:36.864Z,32.22
2019-04-29T08:58:06.938Z,30.12
2019-04-29T09:00:36.492Z,30.26
2019-04-29T09:03:05.137Z,31.58
2019-04-29T09:05:35.547Z,28.59
2019-04-29T09:08:04.379Z,30.90
2019-04-29T09:10:36.411Z,29.49
2019-04-29T09:13:03.479Z,27.78
2019-04-29T09:15:32.208Z,28.03
2019-04-29T09:18:00.913Z,28.34
2019-04-29T09:20:29.563Z,27.34
2019-04-29T09:23:02.959Z,26.55
2019-04-29T09:25:36.277Z,27.36
2019-04-29T09:28:06.709Z,28.02
2019-04-29T09:30:38.473Z,27.41
2019-04-29T09:33:08.739Z,27.95
2019-04-29T09:35:38.804Z,28.10
2019-04-29T09:38:06.703Z,27.12
2019-04-29T09:40:54.481Z,27.29
2019-04-29T09:43:33.029Z,27.59
2019-04-29T09:46:03.473Z,28.09
2019-04-29T09:48:32.229Z,28.28
2019-04-29T09:51:00.967Z,27.77
2019-04-29T09:53:29.623Z,27.75
2019-04-29T09:55:58.610Z,28.45
2019-04-29T09:58:27.281Z,27.46
2019-04-29T10:01:13.945Z,28.21
2019-04-29T10:03:44.325Z,29.67
2019-04-29T10:06:23.558Z,28.70
2019-04-29T10:08:52.276Z,30.02
2019-04-29T10:11:20.931Z,30.00
2019-04-29T10:13:49.647Z,29.65
2019-04-29T10:16:31.762Z,29.62
2019-04-29T10:19:05.242Z,30.08
2019-04-29T10:21:31.636Z,30.97
2019-04-29T10:24:00.448Z,30.08
2019-04-29T10:26:29.151Z,29.28
2019-04-29T10:29:05.559Z,29.76
2019-04-29T10:31:34.323Z,29.64
2019-04-29T10:34:03.044Z,28.91
2019-04-29T10:36:31.793Z,29.29
2019-04-29T10:39:02.153Z,29.70
2019-04-29T10:41:40.285Z,29.28
2019-04-29T10:44:29.581Z,28.84
2019-04-29T10:47:10.092Z,28.83
2019-04-29T10:49:57.288Z,28.86
2019-04-29T10:52:26.725Z,28.56
2019-04-29T10:54:56.546Z,27.98
2019-04-29T10:57:29.322Z,27.19
2019-04-29T11:00:11.029Z,26.71
2019-04-29T11:02:39.995Z,28.61
2019-04-29T11:05:15.571Z,28.31
2019-04-29T11:07:46.237Z,28.12
2019-04-29T11:10:24.962Z,27.85
2019-04-29T11:12:47.883Z,27.52
2019-04-29T11:15:19.797Z,27.60
2019-04-29T11:17:58.491Z,27.09
2019-04-29T11:20:21.491Z,27.16
2019-04-29T11:23:09.315Z,27.07
2019-04-29T11:25:50.960Z,26.52
2019-04-29T11:28:18.699Z,27.07
2019-04-29T11:30:49.613Z,26.74
2019-04-29T11:33:28.533Z,27.43
2019-04-29T11:36:03.847Z,26.95
2019-04-29T11:38:33.326Z,26.76
2019-04-29T11:41:02.341Z,27.13
2019-04-29T11:43:31.655Z,27.32
2019-04-29T11:46:00.381Z,27.16
2019-04-29T11:48:29.102Z,26.89
2019-04-29T11:50:59.399Z,27.76
2019-04-29T11:53:28.852Z,27.63
2019-04-29T11:55:58.766Z,27.17
2019-04-29T11:58:31.940Z,26.79
2019-04-29T12:01:10.215Z,26.64
2019-04-29T12:03:56.531Z,26.99
2019-04-29T12:06:23.998Z,26.93
2019-04-29T12:08:54.818Z,26.64
2019-04-29T12:11:23.814Z,26.26
2019-04-29T12:14:05.927Z,25.51
2019-04-29T12:16:36.264Z,26.29
2019-04-29T12:19:20.899Z,26.30
2019-04-29T12:21:47.180Z,25.61
2019-04-29T12:24:16.243Z,25.91
2019-04-29T12:26:44.989Z,26.08
2019-04-29T12:29:18.037Z,25.53
2019-04-29T12:31:51.931Z,25.82
2019-04-29T12:34:26.819Z,26.04
2019-04-29T12:36:56.778Z,25.73
2019-04-29T12:39:42.791Z,25.47
2019-04-29T12:42:17.932Z,25.97
2019-04-29T12:44:54.366Z,25.66
2019-04-29T12:47:28.024Z,25.84
2019-04-29T12:49:56.669Z,25.98
2019-04-29T12:52:25.595Z,25.90
2019-04-29T12:54:54.343Z,26.44
2019-04-29T12:57:23.583Z,25.79
2019-04-29T12:59:54.715Z,25.78
2019-04-29T13:02:28.415Z,26.30
2019-04-29T13:05:01.705Z,26.30
2019-04-29T13:07:39.351Z,26.55
2019-04-29T13:10:18.949Z,26.04
2019-04-29T13:12:47.687Z,26.30
2019-04-29T13:15:24.270Z,26.24
2019-04-29T13:18:03.639Z,26.17
2019-04-29T13:20:28.201Z,26.42
2019-04-29T13:23:01.157Z,25.96
2019-04-29T13:25:27.542Z,25.76
2019-04-29T13:28:03.754Z,25.95
2019-04-29T13:30:26.710Z,25.99
2019-04-29T13:32:55.480Z,26.89
2019-04-29T13:35:24.395Z,27.04
2019-04-29T13:37:53.104Z,26.85
2019-04-29T13:40:24.427Z,26.90
2019-04-29T13:42:53.189Z,27.17
2019-04-29T13:45:25.234Z,27.18
2019-04-29T13:47:55.625Z,27.47
2019-04-29T13:50:38.989Z,27.58
2019-04-29T13:52:56.343Z,27.13
2019-04-29T13:55:47.041Z,26.81
2019-04-29T13:57:57.380Z,27.31
2019-04-29T14:00:27.742Z,26.79
2019-04-29T14:03:00.893Z,27.01
2019-04-29T14:05:32.510Z,27.35
2019-04-29T14:08:01.034Z,26.94
2019-04-29T14:10:29.722Z,26.97
2019-04-29T14:13:09.814Z,27.22
2019-04-29T14:15:29.634Z,27.51
2019-04-29T14:17:59.302Z,27.33
2019-04-29T14:20:27.952Z,27.38
2019-04-29T14:22:56.648Z,27.36
2019-04-29T14:25:25.363Z,27.73
2019-04-29T14:27:54.009Z,27.26
2019-04-29T14:30:37.532Z,27.23
2019-04-29T14:32:54.930Z,27.22
2019-04-29T14:35:28.219Z,27.48
2019-04-29T14:38:04.585Z,27.42
2019-04-29T14:40:27.376Z,27.53
2019-04-29T14:43:26.855Z,28.09
2019-04-29T14:45:55.375Z,28.09
2019-04-29T14:48:25.866Z,28.00
2019-04-29T14:50:56.129Z,28.02
2019-04-29T14:53:26.246Z,28.06
2019-04-29T14:55:55.162Z,27.81
2019-04-29T14:58:23.880Z,27.51
2019-04-29T15:00:54.176Z,27.81
2019-04-29T15:03:24.479Z,27.98
2019-04-29T15:05:53.238Z,28.02
2019-04-29T15:08:22.190Z,28.20
2019-04-29T15:10:52.545Z,27.98
2019-04-29T15:13:22.196Z,28.21
2019-04-29T15:16:04.625Z,27.99
2019-04-29T15:18:49.566Z,28.11
2019-04-29T15:21:33.084Z,28.25
2019-04-29T15:23:53.995Z,28.26
2019-04-29T15:26:22.661Z,28.78
2019-04-29T15:28:51.453Z,28.68
2019-04-29T15:31:22.277Z,29.11
2019-04-29T15:33:51.140Z,28.87
2019-04-29T15:36:19.776Z,28.60
2019-04-29T15:39:08.288Z,28.59
2019-04-29T15:41:20.565Z,28.85
2019-04-29T15:43:49.623Z,28.75
2019-04-29T15:46:18.282Z,28.51
2019-04-29T15:48:46.968Z,28.95
2019-04-29T15:51:15.665Z,29.13
2019-04-29T15:53:44.341Z,29.42
2019-04-29T15:56:28.420Z,29.65
2019-04-29T15:58:43.706Z,29.57
2019-04-29T16:03:43.150Z,29.69
2019-04-29T16:06:22.287Z,30.09
2019-04-29T16:08:52.632Z,30.03
2019-04-29T16:11:38.928Z,30.36
2019-04-29T16:14:17.930Z,30.48
2019-04-29T16:16:46.591Z,30.38
2019-04-29T16:19:15.297Z,30.32
2019-04-29T16:21:44.147Z,30.21
2019-04-29T16:24:25.796Z,30.00
2019-04-29T16:26:43.282Z,30.19
2019-04-29T16:29:15.154Z,30.24
2019-04-29T16:31:42.663Z,30.48
2019-04-29T16:34:11.369Z,30.53
2019-04-29T16:36:43.756Z,30.70
2019-04-29T16:39:10.491Z,30.84
2019-04-29T16:41:50.975Z,31.16
2019-04-29T16:44:34.596Z,31.11
2019-04-29T16:46:49.293Z,31.15
2019-04-29T16:49:18.256Z,31.26
2019-04-29T16:51:47.839Z,31.35
2019-04-29T16:54:20.638Z,31.41
2019-04-29T16:56:47.846Z,31.38
2019-04-29T16:59:16.517Z,31.52
2019-04-29T17:01:45.246Z,31.72
2019-04-29T17:04:13.996Z,31.90
2019-04-29T17:06:52.469Z,32.19
2019-04-29T17:09:31.098Z,32.00
2019-04-29T17:12:01.361Z,32.32
2019-04-29T17:14:30.118Z,32.33
2019-04-29T17:16:58.864Z,32.01
2019-04-29T17:19:27.466Z,32.24
2019-04-29T17:22:23.272Z,32.19
2019-04-29T17:24:26.617Z,32.30
2019-04-29T17:27:05.819Z,32.31
2019-04-29T17:29:49.273Z,32.53
2019-04-29T17:32:27.606Z,32.63
2019-04-29T17:34:59.729Z,32.66
2019-04-29T17:35:15.455Z,29.50
2019-04-29T17:37:28.260Z,32.89
2019-04-29T17:39:56.882Z,32.93
2019-04-29T17:42:27.201Z,33.05
2019-04-29T17:44:55.872Z,33.18
2019-04-29T17:47:38.140Z,33.47
2019-04-29T17:50:31.251Z,33.61
2019-04-29T17:52:51.610Z,33.82
2019-04-29T17:55:21.824Z,35.08
2019-04-29T17:57:58.194Z,36.10
2019-04-29T18:00:41.352Z,36.19
2019-04-29T18:03:18.799Z,36.91
2019-04-29T18:05:57.595Z,36.90
2019-04-29T18:08:27.046Z,37.14
2019-04-29T18:10:59.881Z,37.87
2019-04-29T18:13:27.908Z,38.00
2019-04-29T18:16:01.630Z,38.25
2019-04-29T18:18:28.570Z,38.90
2019-04-29T18:21:03.113Z,38.79
2019-04-29T18:23:33.739Z,38.74
2019-04-29T18:26:04.839Z,38.74
2019-04-29T18:28:35.848Z,38.74
2019-04-29T18:31:07.112Z,38.77
2019-04-29T18:33:35.743Z,38.78
2019-04-29T18:36:06.877Z,38.82
2019-04-29T18:38:35.111Z,38.97
2019-04-29T18:41:03.886Z,39.21
2019-04-29T18:43:32.594Z,39.05
2019-04-29T18:46:05.962Z,39.33
2019-04-29T18:48:31.900Z,39.71
2019-04-29T18:51:00.618Z,40.57
2019-04-29T18:53:29.264Z,40.57
2019-04-29T18:55:57.931Z,40.59
2019-04-29T18:58:26.649Z,40.80
2019-04-29T19:00:56.413Z,40.77
2019-04-29T19:03:29.683Z,40.75
2019-04-29T19:05:58.963Z,40.82
2019-04-29T19:08:30.498Z,40.84
2019-04-29T19:10:58.112Z,40.90
2019-04-29T19:13:31.057Z,40.82
2019-04-29T19:16:09.481Z,40.84
2019-04-29T19:18:30.562Z,40.79
2019-04-29T19:20:59.280Z,40.69
2019-04-29T19:23:29.869Z,40.63
2019-04-29T19:25:58.631Z,40.39
2019-04-29T19:28:32.538Z,40.56
2019-04-29T19:31:03.137Z,40.90
2019-04-29T19:33:35.717Z,40.49
2019-04-29T19:36:01.969Z,40.53
2019-04-29T19:38:30.783Z,40.18
2019-04-29T19:40:59.457Z,39.92
2019-04-29T19:43:28.227Z,40.58
2019-04-29T19:45:57.490Z,40.93
2019-04-29T19:48:28.395Z,41.08
2019-04-29T19:51:14.083Z,41.75
2019-04-29T19:53:27.435Z,41.81
2019-04-29T19:56:04.174Z,41.79
2019-04-29T19:58:29.670Z,41.81
2019-04-29T20:01:10.321Z,41.99
2019-04-29T20:03:35.816Z,41.92
2019-04-29T20:06:09.048Z,42.09
2019-04-29T20:08:51.010Z,42.11
2019-04-29T20:11:14.295Z,41.95
2019-04-29T20:13:41.123Z,41.69
2019-04-29T20:16:24.952Z,41.66
2019-04-29T20:19:12.325Z,41.80
2019-04-29T20:21:38.601Z,41.90
2019-04-29T20:24:09.854Z,42.00
2019-04-29T20:26:39.262Z,42.07
2019-04-29T20:32:07.932Z,42.22
2019-04-29T20:34:37.164Z,42.65
2019-04-29T20:37:10.756Z,42.83
2019-04-29T20:39:37.759Z,43.25
2019-04-29T20:42:10.276Z,44.81
2019-04-29T20:44:41.123Z,43.70
2019-04-29T20:47:19.365Z,43.82
2019-04-29T20:49:39.555Z,43.15
2019-04-29T20:52:22.238Z,43.17
2019-04-29T20:54:57.615Z,43.11
2019-04-29T20:57:23.684Z,43.42
2019-04-29T20:59:52.220Z,42.95
2019-04-29T21:02:31.454Z,43.51
2019-04-29T21:04:52.089Z,44.05
2019-04-29T21:07:23.617Z,43.73
2019-04-29T21:09:51.210Z,43.85
2019-04-29T21:12:21.525Z,43.94
2019-04-29T21:15:00.860Z,44.25
2019-04-29T21:17:31.992Z,43.85
2019-04-29T21:20:00.262Z,43.82
2019-04-29T21:22:29.188Z,43.96
2019-04-29T21:24:58.016Z,43.83
2019-04-29T21:27:26.686Z,43.61
2019-04-29T21:29:55.515Z,43.66
2019-04-29T21:32:25.805Z,43.79
2019-04-29T21:34:56.379Z,43.78
2019-04-29T21:37:29.682Z,44.68
2019-04-29T21:39:59.969Z,45.34
2019-04-29T21:42:36.986Z,45.67
2019-04-29T21:45:09.084Z,45.74
2019-04-29T21:47:42.750Z,45.66
2019-04-29T21:50:08.674Z,45.75
2019-04-29T21:52:38.432Z,45.89
2019-04-29T21:55:07.312Z,45.62
2019-04-29T21:57:35.974Z,45.42
2019-04-29T22:00:08.770Z,45.45
2019-04-29T22:02:37.514Z,45.05
2019-04-29T22:05:09.706Z,45.39
2019-04-29T22:07:39.702Z,45.30
2019-04-29T22:10:09.513Z,45.46
2019-04-29T22:12:38.260Z,45.57
2019-04-29T22:15:08.855Z,45.32
2019-04-29T22:17:37.593Z,45.46
2019-04-29T22:20:08.520Z,45.56
2019-04-29T22:22:37.249Z,45.79
2019-04-29T22:25:09.941Z,46.11
2019-04-29T22:27:39.766Z,46.38
2019-04-29T22:30:16.894Z,46.85
2019-04-29T22:32:41.318Z,47.47
2019-04-29T22:35:10.216Z,47.20
2019-04-29T22:37:38.883Z,48.05
2019-04-29T22:40:10.497Z,48.60
2019-04-29T22:42:43.531Z,49.02
2019-04-29T22:45:12.238Z,49.02
2019-04-29T22:47:40.949Z,49.15
2019-04-29T22:50:09.800Z,49.67
2019-04-29T22:52:38.467Z,49.75
2019-04-29T22:55:08.996Z,49.77
2019-04-29T22:57:37.688Z,49.95
2019-04-29T23:00:08.573Z,49.72
2019-04-29T23:02:37.421Z,49.46
2019-04-29T23:05:06.568Z,49.43
2019-04-29T23:07:37.544Z,49.35
2019-04-29T23:10:07.085Z,49.29
2019-04-29T23:12:35.761Z,49.82
2019-04-29T23:15:06.463Z,49.80
2019-04-29T23:17:35.561Z,49.99
2019-04-29T23:20:28.517Z,50.57
2019-04-29T23:23:07.689Z,50.86
2019-04-29T23:25:38.223Z,51.04
2019-04-29T23:28:06.801Z,51.13
2019-04-29T23:30:35.449Z,51.52
2019-04-29T23:33:04.716Z,51.56
2019-04-29T23:35:34.964Z,51.50
2019-04-29T23:38:09.137Z,51.46
2019-04-29T23:40:34.594Z,51.06
2019-04-29T23:43:03.244Z,51.07
2019-04-29T23:45:31.900Z,51.01
2019-04-29T23:48:00.601Z,51.14
2019-04-29T23:50:29.222Z,51.36
2019-04-29T23:52:57.873Z,50.85
2019-04-29T23:55:29.171Z,50.54
2019-04-29T23:58:02.677Z,50.31
